Time;durP1;ratioP1;P1;durP2;ratioP2;P2;SDS_P1;SDS_P2;PMS_P1;PMS_P2;Temp;Humidity;BMP_temperature;BMP_pressure;BME280_temperature;BME280_humidity;BME280_pressure;Samples;Min_cycle;Max_cycle;Signal;HPM_P1;HPM_P2
2023/07/03 00:01:38;;;;;;;10.18;3.65;;;19.80;85.00;;;;;;4115705;28;20066;-53
2023/07/03 00:03:40;;;;;;;15.15;3.85;;;19.70;85.60;;;;;;4116794;28;20043;-54
2023/07/03 00:05:44;;;;;;;10.32;3.90;;;19.80;85.60;;;;;;4116014;28;20043;-53
2023/07/03 00:07:46;;;;;;;9.23;3.47;;;19.80;85.70;;;;;;4115988;28;20400;-53
2023/07/03 00:09:49;;;;;;;11.82;4.10;;;19.80;86.30;;;;;;4098687;28;20098;-53
2023/07/03 00:11:51;;;;;;;10.43;4.00;;;19.70;86.20;;;;;;4114244;28;20121;-52
2023/07/03 00:13:53;;;;;;;10.82;3.35;;;19.70;86.70;;;;;;4116107;28;20141;-53
2023/07/03 00:15:59;;;;;;;11.25;3.35;;;19.70;87.40;;;;;;4115335;28;20054;-53
2023/07/03 00:18:01;;;;;;;11.48;4.18;;;19.60;87.70;;;;;;4115885;28;20170;-52
2023/07/03 00:20:05;;;;;;;13.25;3.55;;;19.60;88.40;;;;;;4115796;28;20073;-51
2023/07/03 00:22:08;;;;;;;11.43;3.45;;;19.60;88.50;;;;;;4114865;28;20380;-50
2023/07/03 00:24:11;;;;;;;8.93;3.72;;;19.50;89.00;;;;;;4115834;28;20113;-51
2023/07/03 00:26:13;;;;;;;10.00;3.60;;;19.50;89.40;;;;;;4115060;28;20046;-51
2023/07/03 00:28:15;;;;;;;12.32;3.90;;;19.50;89.50;;;;;;4115993;28;20051;-59
2023/07/03 00:30:17;;;;;;;12.02;3.95;;;19.50;89.80;;;;;;4116968;28;20504;-55
2023/07/03 00:32:20;;;;;;;11.18;3.63;;;19.50;90.00;;;;;;4097888;29;20058;-53
2023/07/03 00:34:22;;;;;;;12.65;4.45;;;19.40;90.00;;;;;;4099767;29;20167;-53
2023/07/03 00:36:24;;;;;;;13.80;4.38;;;19.30;90.20;;;;;;4108970;28;20073;-53
2023/07/03 00:38:28;;;;;;;14.90;4.70;;;19.30;90.20;;;;;;4115705;28;20053;-54
2023/07/03 00:40:30;;;;;;;7.57;3.83;;;19.40;90.30;;;;;;4115416;28;20458;-54
2023/07/03 00:42:32;;;;;;;10.32;3.58;;;19.40;90.20;;;;;;4114462;28;20047;-54
2023/07/03 00:44:34;;;;;;;11.75;4.00;;;19.50;90.30;;;;;;4115689;28;20051;-53
2023/07/03 00:46:36;;;;;;;10.93;3.40;;;19.50;90.30;;;;;;4115069;28;20054;-51
2023/07/03 00:48:40;;;;;;;13.93;4.15;;;19.50;90.40;;;;;;4115485;28;20145;-51
2023/07/03 00:50:42;;;;;;;9.48;3.85;;;19.40;90.50;;;;;;4129193;28;20082;-52
2023/07/03 00:52:48;;;;;;;12.10;4.18;;;19.40;90.50;;;;;;4114642;28;20062;-52
2023/07/03 00:54:53;;;;;;;9.45;3.50;;;19.30;90.60;;;;;;4115292;28;20101;-51
2023/07/03 00:56:55;;;;;;;11.80;3.95;;;19.40;90.60;;;;;;4114768;28;20429;-51
2023/07/03 00:58:57;;;;;;;13.07;4.43;;;19.30;90.70;;;;;;4115402;28;20074;-51
2023/07/03 01:01:19;;;;;;;8.07;3.72;;;19.30;90.80;;;;;;4114472;28;20439;-51
2023/07/03 01:03:26;;;;;;;11.50;3.83;;;19.30;90.90;;;;;;4115089;28;20050;-51
2023/07/03 01:05:32;;;;;;;10.20;3.65;;;19.20;91.00;;;;;;4115457;28;20067;-50
2023/07/03 01:07:36;;;;;;;9.35;3.78;;;19.20;91.00;;;;;;4114320;28;20043;-51
2023/07/03 01:09:44;;;;;;;11.45;4.22;;;19.30;91.00;;;;;;4097779;28;20565;-50
2023/07/03 01:11:48;;;;;;;7.95;3.63;;;19.30;91.00;;;;;;4113997;28;20315;-51
2023/07/03 01:13:54;;;;;;;9.80;3.80;;;19.30;91.00;;;;;;4115087;28;20042;-50
2023/07/03 01:16:00;;;;;;;12.85;4.20;;;19.30;91.00;;;;;;4114921;28;20042;-51
2023/07/03 01:18:05;;;;;;;9.43;3.60;;;19.20;91.10;;;;;;4115060;28;20074;-50
2023/07/03 01:20:09;;;;;;;8.95;3.63;;;19.20;91.00;;;;;;4115040;28;20054;-51
2023/07/03 01:22:19;;;;;;;9.57;3.88;;;19.20;91.10;;;;;;4113801;28;20130;-51
2023/07/03 01:24:32;;;;;;;9.57;3.35;;;19.20;91.10;;;;;;4114756;28;20122;-51
2023/07/03 01:26:35;;;;;;;13.85;4.05;;;19.30;91.10;;;;;;4115130;28;20051;-50
2023/07/03 01:28:39;;;;;;;12.85;3.95;;;19.30;91.00;;;;;;4114977;28;20047;-51
2023/07/03 01:30:43;;;;;;;12.30;3.87;;;19.30;91.10;;;;;;4114653;28;20125;-52
2023/07/03 01:32:50;;;;;;;9.13;3.75;;;19.30;91.10;;;;;;4114683;28;20494;-54
2023/07/03 01:34:54;;;;;;;12.30;4.28;;;19.40;91.20;;;;;;4104967;28;20129;-51
2023/07/03 01:36:59;;;;;;;7.40;3.58;;;19.30;91.40;;;;;;4114854;28;20043;-50
2023/07/03 01:39:02;;;;;;;8.50;3.50;;;19.40;91.40;;;;;;4114221;28;20182;-51
2023/07/03 01:41:06;;;;;;;10.98;4.57;;;19.30;91.40;;;;;;4113773;28;20130;-50
2023/07/03 01:43:10;;;;;;;11.32;4.18;;;19.30;91.30;;;;;;4114341;28;20042;-53
2023/07/03 01:45:13;;;;;;;11.65;4.22;;;19.30;91.40;;;;;;4114838;28;20054;-53
2023/07/03 01:47:15;;;;;;;12.32;4.47;;;19.20;91.50;;;;;;4114821;28;20121;-52
2023/07/03 01:49:17;;;;;;;14.10;4.47;;;19.20;91.50;;;;;;4114444;28;20054;-52
2023/07/03 01:51:27;;;;;;;13.45;4.28;;;19.20;91.50;;;;;;4100221;28;20454;-52
2023/07/03 01:53:31;;;;;;;9.90;4.10;;;19.20;91.70;;;;;;4103897;28;20122;-52
2023/07/03 01:55:39;;;;;;;10.75;4.07;;;19.20;91.60;;;;;;4114784;28;20054;-53
2023/07/03 01:57:50;;;;;;;11.77;4.50;;;19.20;91.70;;;;;;4114697;28;20046;-53
2023/07/03 01:59:53;;;;;;;10.75;3.92;;;19.10;91.60;;;;;;4114441;28;20105;-53
2023/07/03 02:02:00;;;;;;;12.40;4.57;;;19.20;91.70;;;;;;4113587;28;20047;-53
2023/07/03 02:04:06;;;;;;;13.25;4.93;;;19.20;91.80;;;;;;4114282;28;20135;-53
2023/07/03 02:06:13;;;;;;;13.13;4.65;;;19.20;91.70;;;;;;4114618;28;20698;-53
2023/07/03 02:08:17;;;;;;;13.77;4.55;;;19.10;91.80;;;;;;4114409;28;20118;-53
2023/07/03 02:10:19;;;;;;;9.82;3.95;;;19.10;91.90;;;;;;4114517;28;20047;-56
2023/07/03 02:12:21;;;;;;;10.80;4.20;;;19.10;91.90;;;;;;4097887;29;20043;-53
2023/07/03 02:14:25;;;;;;;11.32;4.82;;;19.10;91.90;;;;;;4105890;28;20049;-53
2023/07/03 02:16:30;;;;;;;12.73;4.53;;;19.10;92.00;;;;;;4115756;28;20043;-53
2023/07/03 02:18:32;;;;;;;15.80;4.45;;;19.20;91.90;;;;;;4115308;28;20053;-57
2023/07/03 02:20:36;;;;;;;11.82;4.40;;;19.20;91.90;;;;;;4117789;28;20077;-54
2023/07/03 02:22:38;;;;;;;11.63;3.65;;;19.10;92.00;;;;;;4099032;29;20126;-60
2023/07/03 02:24:41;;;;;;;10.45;4.10;;;19.20;91.90;;;;;;4117557;28;20117;-62
2023/07/03 02:26:44;;;;;;;11.35;4.22;;;19.20;92.00;;;;;;4117507;28;20499;-53
2023/07/03 02:28:46;;;;;;;10.80;4.50;;;19.20;92.00;;;;;;4117693;28;20053;-53
2023/07/03 02:30:50;;;;;;;9.45;4.57;;;19.20;92.00;;;;;;4117072;28;20042;-53
2023/07/03 02:32:52;;;;;;;13.07;5.10;;;19.30;92.00;;;;;;4116651;28;20133;-53
2023/07/03 02:34:55;;;;;;;12.60;4.70;;;19.20;92.10;;;;;;4117402;28;20042;-53
2023/07/03 02:36:58;;;;;;;9.48;4.35;;;19.30;91.90;;;;;;4099623;29;20437;-53
2023/07/03 02:39:01;;;;;;;13.77;4.70;;;19.30;92.00;;;;;;4117412;28;20493;-51
2023/07/03 02:41:03;;;;;;;16.08;5.32;;;19.20;92.20;;;;;;4116486;28;20061;-51
2023/07/03 02:43:05;;;;;;;12.40;4.22;;;19.20;92.30;;;;;;4117039;28;20082;-50
2023/07/03 02:45:07;;;;;;;12.48;4.90;;;19.20;92.20;;;;;;4117067;28;20153;-51
2023/07/03 02:47:11;;;;;;;16.15;5.90;;;19.10;92.20;;;;;;4117213;28;20467;-53
2023/07/03 02:49:14;;;;;;;10.55;4.68;;;19.20;92.30;;;;;;4119781;28;20050;-52
2023/07/03 02:51:16;;;;;;;14.25;5.18;;;19.20;92.30;;;;;;4119039;28;20110;-53
2023/07/03 02:53:18;;;;;;;13.23;4.70;;;19.20;92.30;;;;;;4117037;28;20381;-53
2023/07/03 02:55:20;;;;;;;9.00;4.60;;;19.20;92.40;;;;;;4117055;28;20409;-53
2023/07/03 02:57:23;;;;;;;12.02;4.50;;;19.20;92.50;;;;;;4117318;28;20074;-53
2023/07/03 02:59:25;;;;;;;14.65;5.10;;;19.10;92.50;;;;;;4117181;28;20043;-53
2023/07/03 03:01:27;;;;;;;15.77;5.22;;;19.20;92.40;;;;;;4116180;28;20046;-53
2023/07/03 03:03:31;;;;;;;10.93;4.80;;;19.20;92.40;;;;;;4117041;28;20047;-51
2023/07/03 03:05:33;;;;;;;12.88;4.78;;;19.10;92.50;;;;;;4117042;28;20472;-51
2023/07/03 03:07:35;;;;;;;12.88;5.00;;;19.10;92.50;;;;;;4099207;29;20040;-50
2023/07/03 03:09:38;;;;;;;11.57;4.40;;;19.10;92.40;;;;;;4104410;28;20155;-50
2023/07/03 03:11:40;;;;;;;14.05;4.60;;;19.10;92.30;;;;;;4115568;28;20042;-50
2023/07/03 03:13:43;;;;;;;11.73;4.90;;;19.10;92.30;;;;;;4116764;28;20074;-51
2023/07/03 03:15:45;;;;;;;11.13;4.80;;;19.10;92.50;;;;;;4116881;28;20126;-51
2023/07/03 03:17:47;;;;;;;10.15;4.72;;;19.20;92.50;;;;;;4113491;28;20444;-51
2023/07/03 03:19:50;;;;;;;15.00;5.15;;;19.10;92.60;;;;;;4116719;28;20078;-51
2023/07/03 03:21:52;;;;;;;13.70;5.68;;;19.10;92.70;;;;;;4115358;28;20050;-50
2023/07/03 03:23:54;;;;;;;13.73;5.65;;;19.10;92.70;;;;;;4116640;28;20057;-50
2023/07/03 03:25:56;;;;;;;9.60;4.70;;;19.20;92.60;;;;;;4116510;28;20507;-53
2023/07/03 03:27:58;;;;;;;13.23;5.10;;;19.20;92.50;;;;;;4115377;28;20053;-50
2023/07/03 03:30:01;;;;;;;13.45;5.13;;;19.00;92.60;;;;;;4099106;28;20082;-51
2023/07/03 03:32:03;;;;;;;14.75;6.07;;;19.00;92.60;;;;;;4115248;28;20101;-50
2023/07/03 03:34:06;;;;;;;11.15;5.20;;;18.90;92.60;;;;;;4116712;28;20079;-51
2023/07/03 03:36:09;;;;;;;10.40;5.50;;;19.00;92.60;;;;;;4116260;28;20070;-53
2023/07/03 03:38:11;;;;;;;13.07;5.50;;;19.00;92.60;;;;;;4116157;28;20051;-54
2023/07/03 03:40:14;;;;;;;14.35;5.75;;;19.00;92.70;;;;;;4116739;28;20042;-55
2023/07/03 03:42:16;;;;;;;9.13;4.97;;;19.00;92.70;;;;;;4115249;28;20046;-53
2023/07/03 03:44:18;;;;;;;13.90;6.03;;;19.00;92.60;;;;;;4116396;28;20158;-53
2023/07/03 03:46:20;;;;;;;13.07;5.68;;;19.00;92.80;;;;;;4116210;28;20511;-53
2023/07/03 03:48:22;;;;;;;11.68;6.03;;;19.00;92.80;;;;;;4116081;28;20405;-53
2023/07/03 03:50:26;;;;;;;12.35;5.97;;;19.00;92.80;;;;;;4116318;28;20102;-53
2023/07/03 03:52:30;;;;;;;13.37;6.00;;;19.00;92.80;;;;;;4115029;28;20074;-54
2023/07/03 03:54:32;;;;;;;14.77;6.72;;;19.00;92.90;;;;;;4115129;28;20042;-53
2023/07/03 03:56:34;;;;;;;14.63;7.32;;;19.00;93.20;;;;;;4100310;28;20464;-53
2023/07/03 03:58:36;;;;;;;16.42;6.93;;;18.90;92.90;;;;;;4113206;28;20046;-53
2023/07/03 04:00:38;;;;;;;19.20;8.50;;;18.90;93.00;;;;;;4116072;28;20448;-53
2023/07/03 04:02:40;;;;;;;21.55;11.75;;;18.90;93.00;;;;;;4114809;28;20067;-53
2023/07/03 04:04:42;;;;;;;24.10;12.25;;;18.90;93.00;;;;;;4116134;28;20049;-54
2023/07/03 04:06:44;;;;;;;29.05;14.05;;;19.00;93.00;;;;;;4116197;28;20175;-54
2023/07/03 04:08:48;;;;;;;31.77;15.15;;;19.00;93.10;;;;;;4115565;28;20043;-53
2023/07/03 04:10:50;;;;;;;24.70;12.85;;;19.10;93.00;;;;;;4115890;28;20050;-53
2023/07/03 04:12:52;;;;;;;20.40;11.90;;;19.00;93.40;;;;;;4114842;28;20071;-53
2023/07/03 04:14:54;;;;;;;18.20;9.80;;;19.00;93.20;;;;;;4115935;28;20089;-51
2023/07/03 04:16:57;;;;;;;16.85;9.18;;;19.10;93.30;;;;;;4115664;28;20424;-53
2023/07/03 04:18:59;;;;;;;16.60;7.88;;;19.00;93.30;;;;;;4115334;28;20058;-51
2023/07/03 04:21:01;;;;;;;12.63;6.53;;;19.10;93.40;;;;;;4115699;28;20050;-51
2023/07/03 04:23:03;;;;;;;13.27;6.65;;;19.00;93.30;;;;;;4114653;28;20054;-57
2023/07/03 04:25:08;;;;;;;13.45;6.43;;;19.00;93.50;;;;;;4115895;28;20051;-51
2023/07/03 04:27:10;;;;;;;;;;;19.00;93.50;;;;;;4116284;28;20059;-51
2023/07/03 04:29:13;;;;;;;14.45;7.18;;;19.00;93.60;;;;;;4098344;29;19938;-51
2023/07/03 04:31:15;;;;;;;16.73;7.13;;;19.00;93.60;;;;;;4115669;28;20481;-50
2023/07/03 04:33:17;;;;;;;16.92;7.20;;;18.90;93.60;;;;;;4114602;28;20420;-50
2023/07/03 04:35:19;;;;;;;14.05;6.35;;;19.00;93.60;;;;;;4098403;29;20106;-51
2023/07/03 04:37:22;;;;;;;16.75;7.07;;;19.00;93.60;;;;;;4099376;28;20247;-50
2023/07/03 04:39:24;;;;;;;12.73;6.22;;;18.90;93.70;;;;;;4108421;28;20081;-50
2023/07/03 04:41:28;;;;;;;12.85;6.05;;;19.00;93.70;;;;;;4113668;28;20101;-50
2023/07/03 04:43:31;;;;;;;13.95;5.97;;;19.00;93.80;;;;;;4115248;28;20090;-51
2023/07/03 04:45:40;;;;;;;15.15;6.05;;;19.00;93.80;;;;;;4115450;28;20071;-50
2023/07/03 04:47:42;;;;;;;12.07;5.65;;;19.00;93.80;;;;;;4115201;28;20055;-50
2023/07/03 04:49:45;;;;;;;14.68;6.05;;;19.10;93.60;;;;;;4118606;28;20054;-51
2023/07/03 04:51:49;;;;;;;14.57;5.82;;;19.10;93.60;;;;;;4114529;28;20043;-51
2023/07/03 04:53:51;;;;;;;10.48;5.63;;;19.20;93.60;;;;;;4115262;28;20051;-51
2023/07/03 04:55:53;;;;;;;13.32;5.13;;;19.20;93.80;;;;;;4113851;28;20137;-50
2023/07/03 04:57:59;;;;;;;11.00;5.10;;;19.20;93.60;;;;;;4115395;28;20440;-50
2023/07/03 05:00:01;;;;;;;14.10;6.07;;;19.20;93.60;;;;;;4114869;28;20089;-51
2023/07/03 05:02:03;;;;;;;12.73;5.43;;;19.20;93.80;;;;;;4113917;28;20381;-51
2023/07/03 05:04:05;;;;;;;14.18;5.47;;;19.10;93.80;;;;;;4115358;28;20126;-51
2023/07/03 05:06:08;;;;;;;9.50;5.22;;;19.20;93.70;;;;;;4115056;28;20444;-54
2023/07/03 05:08:10;;;;;;;11.05;4.85;;;19.20;93.50;;;;;;4115137;28;20078;-53
2023/07/03 05:10:14;;;;;;;13.05;5.40;;;19.20;93.40;;;;;;4114987;28;20045;-53
2023/07/03 05:12:16;;;;;;;11.27;5.20;;;19.20;93.50;;;;;;4114249;28;20125;-53
2023/07/03 05:14:20;;;;;;;11.02;5.22;;;19.20;93.50;;;;;;4115035;28;20082;-54
2023/07/03 05:16:22;;;;;;;15.85;5.60;;;19.30;93.60;;;;;;4114769;28;20061;-54
2023/07/03 05:18:24;;;;;;;10.73;5.20;;;19.30;93.60;;;;;;4114993;28;20047;-54
2023/07/03 05:20:27;;;;;;;14.55;5.82;;;19.30;93.60;;;;;;4114759;28;20046;-53
2023/07/03 05:22:29;;;;;;;11.23;5.53;;;19.40;93.60;;;;;;4113976;28;20066;-53
2023/07/03 05:24:31;;;;;;;14.32;5.32;;;19.40;93.70;;;;;;4115292;28;20046;-54
2023/07/03 05:26:33;;;;;;;11.82;5.60;;;19.40;93.50;;;;;;4114841;28;20051;-53
2023/07/03 05:28:36;;;;;;;11.27;4.80;;;19.40;93.50;;;;;;4114839;28;20043;-54
2023/07/03 05:30:40;;;;;;;9.07;4.60;;;19.40;93.50;;;;;;4114635;28;20054;-51
2023/07/03 05:32:42;;;;;;;12.68;4.97;;;19.40;93.50;;;;;;4103123;28;20062;-51
2023/07/03 05:34:44;;;;;;;10.30;5.15;;;19.50;93.50;;;;;;4114892;28;20464;-55
2023/07/03 05:36:47;;;;;;;10.90;4.75;;;19.40;93.50;;;;;;4114854;28;20134;-51
2023/07/03 05:38:49;;;;;;;12.02;5.35;;;19.40;93.50;;;;;;4114783;28;20078;-51
2023/07/03 05:40:53;;;;;;;14.27;5.72;;;19.40;93.50;;;;;;4097545;29;20063;-53
2023/07/03 05:42:55;;;;;;;11.40;5.32;;;19.40;93.50;;;;;;4112866;28;20078;-53
2023/07/03 05:44:57;;;;;;;11.25;4.88;;;19.50;93.40;;;;;;4114911;28;20050;-53
2023/07/03 05:47:00;;;;;;;12.52;5.10;;;19.50;93.30;;;;;;4114131;28;20079;-54
2023/07/03 05:49:03;;;;;;;11.65;5.20;;;19.50;93.50;;;;;;4116117;28;20126;-53
2023/07/03 05:51:05;;;;;;;11.32;5.28;;;19.50;93.40;;;;;;4127861;28;20059;-53
2023/07/03 05:53:08;;;;;;;11.10;5.10;;;19.50;93.40;;;;;;4114707;28;20129;-54
2023/07/03 05:55:10;;;;;;;14.02;5.47;;;19.50;93.30;;;;;;4100645;28;20078;-53
2023/07/03 05:57:12;;;;;;;14.95;5.00;;;19.60;93.40;;;;;;4100687;29;20043;-53
2023/07/03 05:59:14;;;;;;;9.98;4.80;;;19.70;93.00;;;;;;4117899;28;20192;-53
2023/07/03 06:01:16;;;;;;;11.93;4.85;;;19.60;93.00;;;;;;4117550;28;20131;-53
2023/07/03 06:03:20;;;;;;;9.38;4.15;;;19.60;93.10;;;;;;4113455;28;20051;-52
2023/07/03 06:05:23;;;;;;;14.35;4.97;;;19.60;93.40;;;;;;4117787;28;20485;-53
2023/07/03 06:07:25;;;;;;;8.77;4.60;;;19.70;93.20;;;;;;4117319;28;20430;-54
2023/07/03 06:09:28;;;;;;;11.52;4.75;;;19.70;93.10;;;;;;4117735;28;20078;-53
2023/07/03 06:11:31;;;;;;;10.02;4.57;;;19.70;93.10;;;;;;4117712;28;20051;-53
2023/07/03 06:13:33;;;;;;;12.40;4.93;;;19.70;93.10;;;;;;4116552;28;20054;-53
2023/07/03 06:15:35;;;;;;;9.07;4.50;;;19.80;92.70;;;;;;4117627;28;20047;-54
2023/07/03 06:17:38;;;;;;;14.68;4.70;;;19.70;92.70;;;;;;4117699;28;20054;-53
2023/07/03 06:19:42;;;;;;;11.05;4.90;;;19.70;92.60;;;;;;4117554;28;20070;-53
2023/07/03 06:21:44;;;;;;;12.98;5.30;;;19.90;92.50;;;;;;4117203;28;20509;-54
2023/07/03 06:23:46;;;;;;;8.90;4.43;;;20.00;92.50;;;;;;4117340;28;20516;-51
2023/07/03 06:25:48;;;;;;;11.23;4.47;;;20.10;92.30;;;;;;4117433;28;20046;-51
2023/07/03 06:27:51;;;;;;;11.32;4.88;;;20.20;92.00;;;;;;4117508;28;20042;-51
2023/07/03 06:29:53;;;;;;;9.05;4.45;;;20.40;91.90;;;;;;4117385;28;20089;-51
2023/07/03 06:31:55;;;;;;;11.45;4.70;;;20.40;91.60;;;;;;4116897;28;20051;-52
2023/07/03 06:33:57;;;;;;;9.60;4.10;;;20.40;91.50;;;;;;4116967;28;20078;-51
2023/07/03 06:36:01;;;;;;;10.35;4.32;;;20.50;91.20;;;;;;4117318;28;20121;-52
2023/07/03 06:38:03;;;;;;;9.07;4.53;;;20.70;90.80;;;;;;4117168;28;20477;-52
2023/07/03 06:40:10;;;;;;;8.45;4.05;;;20.60;90.70;;;;;;4117476;28;20086;-51
2023/07/03 06:42:12;;;;;;;11.95;4.57;;;20.60;90.80;;;;;;4116340;28;20515;-52
2023/07/03 06:44:16;;;;;;;8.98;4.30;;;20.70;90.50;;;;;;4116560;28;20098;-51
2023/07/03 06:46:18;;;;;;;12.32;4.63;;;20.80;90.70;;;;;;4117044;28;20129;-51
2023/07/03 06:48:21;;;;;;;14.48;4.95;;;20.90;90.40;;;;;;4116786;28;20465;-51
2023/07/03 06:50:23;;;;;;;10.07;4.30;;;20.90;90.50;;;;;;4111202;28;20043;-52
2023/07/03 06:52:26;;;;;;;29.73;6.70;;;21.00;90.40;;;;;;4100505;29;20412;-51
2023/07/03 06:54:28;;;;;;;11.18;5.00;;;21.00;90.60;;;;;;4114354;28;20050;-54
2023/07/03 06:56:30;;;;;;;11.43;4.82;;;21.00;92.40;;;;;;4115859;28;20138;-48
2023/07/03 06:58:33;;;;;;;11.40;5.22;;;20.80;92.80;;;;;;4105670;28;20043;-48
2023/07/03 07:00:36;;;;;;;18.63;5.63;;;20.70;93.00;;;;;;4117323;28;20043;-51
2023/07/03 07:02:38;;;;;;;12.70;4.97;;;20.50;93.00;;;;;;4116230;28;20860;-48
2023/07/03 07:04:42;;;;;;;10.98;4.80;;;20.50;92.80;;;;;;4116122;28;20129;-52
2023/07/03 07:06:44;;;;;;;21.08;5.40;;;20.50;92.80;;;;;;4116885;28;20499;-51
2023/07/03 07:08:49;;;;;;;11.82;4.78;;;20.40;93.00;;;;;;4116893;28;20070;-51
2023/07/03 07:10:51;;;;;;;16.80;5.13;;;20.40;92.80;;;;;;4116792;28;20113;-51
2023/07/03 07:12:55;;;;;;;8.35;4.13;;;20.50;91.90;;;;;;4115602;28;20469;-53
2023/07/03 07:14:57;;;;;;;10.77;4.63;;;20.50;91.90;;;;;;4116578;28;20093;-52
2023/07/03 07:16:59;;;;;;;9.68;4.25;;;20.50;92.60;;;;;;4116744;28;20050;-51
2023/07/03 07:19:04;;;;;;;13.02;4.97;;;20.40;92.10;;;;;;4116622;28;20051;-51
2023/07/03 07:21:07;;;;;;;8.75;4.40;;;20.50;92.30;;;;;;4117202;28;20045;-51
2023/07/03 07:23:09;;;;;;;9.40;4.63;;;20.60;92.90;;;;;;4115784;28;20420;-52
2023/07/03 07:25:15;;;;;;;;;;;20.70;92.40;;;;;;4116990;28;20397;-51
2023/07/03 07:27:17;;;;;;;10.02;3.90;;;20.80;91.50;;;;;;4116189;28;19980;-52
2023/07/03 07:29:19;;;;;;;7.97;4.20;;;21.00;92.10;;;;;;4116505;28;20058;-52
2023/07/03 07:31:23;;;;;;;13.18;4.38;;;21.20;92.20;;;;;;4116487;28;20505;-51
2023/07/03 07:33:26;;;;;;;9.73;5.20;;;21.30;91.80;;;;;;4115446;28;20137;-55
2023/07/03 07:35:28;;;;;;;7.15;4.22;;;21.20;92.40;;;;;;4116424;28;20042;-51
2023/07/03 07:37:30;;;;;;;11.77;4.75;;;21.10;92.00;;;;;;4116717;28;20046;-53
2023/07/03 07:39:32;;;;;;;7.88;3.67;;;21.20;91.50;;;;;;4116178;28;20137;-51
2023/07/03 07:41:36;;;;;;;7.20;3.97;;;21.10;91.00;;;;;;4111498;28;20501;-52
2023/07/03 07:43:38;;;;;;;8.68;4.30;;;21.10;91.20;;;;;;4115339;28;20101;-51
2023/07/03 07:45:40;;;;;;;10.15;3.88;;;21.00;90.70;;;;;;4115809;28;20055;-51
2023/07/03 07:47:43;;;;;;;14.70;4.47;;;20.90;91.60;;;;;;4116510;28;20469;-51
2023/07/03 07:49:45;;;;;;;12.70;4.63;;;20.90;91.20;;;;;;4120927;28;20046;-52
2023/07/03 07:51:47;;;;;;;12.95;4.85;;;21.00;91.60;;;;;;4116137;28;20049;-51
2023/07/03 07:53:49;;;;;;;16.73;5.72;;;20.90;91.30;;;;;;4115362;28;20118;-54
2023/07/03 07:55:51;;;;;;;12.50;4.57;;;20.90;91.50;;;;;;4114656;28;20522;-54
2023/07/03 07:57:56;;;;;;;9.10;4.22;;;20.80;90.90;;;;;;4116221;28;20547;-51
2023/07/03 07:59:58;;;;;;;8.10;4.00;;;20.80;91.40;;;;;;4116109;28;20086;-51
2023/07/03 08:02:00;;;;;;;12.85;4.43;;;20.70;91.10;;;;;;4116284;28;20496;-51
2023/07/03 08:04:02;;;;;;;9.45;3.95;;;20.80;91.20;;;;;;4115765;28;20053;-51
2023/07/03 08:06:05;;;;;;;11.18;4.18;;;20.80;91.30;;;;;;4115987;28;20512;-51
2023/07/03 08:08:07;;;;;;;11.98;4.05;;;20.90;91.10;;;;;;4116282;28;20074;-50
2023/07/03 08:10:10;;;;;;;8.98;4.93;;;20.90;91.40;;;;;;4116083;28;20134;-52
2023/07/03 08:12:12;;;;;;;9.18;4.65;;;21.00;91.10;;;;;;4114800;28;20061;-54
2023/07/03 08:14:15;;;;;;;11.98;5.13;;;21.10;90.90;;;;;;4115575;28;20046;-52
2023/07/03 08:16:17;;;;;;;9.23;4.47;;;21.20;91.30;;;;;;4115741;28;20043;-54
2023/07/03 08:18:20;;;;;;;9.75;5.35;;;21.20;90.40;;;;;;4115810;28;20473;-54
2023/07/03 08:20:23;;;;;;;9.73;4.60;;;21.20;90.00;;;;;;4115951;28;20051;-54
2023/07/03 08:22:25;;;;;;;11.75;5.50;;;21.20;90.60;;;;;;4114952;28;20145;-54
2023/07/03 08:24:27;;;;;;;9.63;4.90;;;21.30;90.50;;;;;;4116158;28;20054;-54
2023/07/03 08:26:31;;;;;;;9.25;4.72;;;21.30;90.60;;;;;;4114926;28;20039;-53
2023/07/03 08:28:33;;;;;;;10.32;4.78;;;21.40;90.80;;;;;;4105127;28;20046;-54
2023/07/03 08:30:38;;;;;;;13.95;5.43;;;21.40;90.30;;;;;;4115915;28;20053;-54
2023/07/03 08:32:43;;;;;;;8.73;4.72;;;21.50;90.30;;;;;;4115074;28;20078;-53
2023/07/03 08:34:45;;;;;;;12.75;4.78;;;21.60;90.30;;;;;;4115940;28;20226;-67
2023/07/03 08:36:50;;;;;;;;;;;21.70;90.70;;;;;;4116428;28;20413;-53
2023/07/03 08:38:55;;;;;;;9.83;4.57;;;21.60;90.00;;;;;;4105370;28;19922;-54
2023/07/03 08:40:58;;;;;;;9.60;4.65;;;21.50;90.60;;;;;;4115622;28;20555;-54
2023/07/03 08:43:01;;;;;;;11.75;4.63;;;21.50;90.60;;;;;;4114639;28;20046;-53
2023/07/03 08:45:06;;;;;;;8.82;4.47;;;21.50;90.30;;;;;;4114947;28;20058;-55
2023/07/03 08:47:15;;;;;;;11.38;5.82;;;21.50;90.40;;;;;;4104387;28;20082;-52
2023/07/03 08:49:23;;;;;;;11.35;4.70;;;21.50;90.70;;;;;;4094826;29;20086;-54
2023/07/03 08:51:28;;;;;;;9.32;4.65;;;21.60;90.30;;;;;;4117275;28;20057;-53
2023/07/03 08:53:35;;;;;;;11.05;4.90;;;21.60;90.20;;;;;;4098899;29;20461;-54
2023/07/03 08:55:41;;;;;;;13.98;5.00;;;21.60;90.00;;;;;;4116579;28;20397;-53
2023/07/03 08:57:44;;;;;;;11.88;4.80;;;21.50;90.00;;;;;;4117533;28;20043;-59
2023/07/03 08:59:46;;;;;;;11.43;4.57;;;21.40;90.10;;;;;;4117379;28;20054;-55
2023/07/03 09:01:55;;;;;;;10.70;4.65;;;21.40;90.00;;;;;;4117061;28;20516;-56
2023/07/03 09:04:08;;;;;;;11.13;5.10;;;21.40;90.00;;;;;;4115567;28;20042;-52
2023/07/03 09:06:15;;;;;;;10.50;4.93;;;21.40;90.20;;;;;;4116023;28;20053;-62
2023/07/03 09:08:24;;;;;;;15.05;5.03;;;21.40;90.10;;;;;;4115338;28;20629;-65
2023/07/03 09:10:33;;;;;;;11.30;5.70;;;21.40;89.80;;;;;;4114253;28;20050;-53
2023/07/03 09:12:39;;;;;;;11.80;4.95;;;21.20;90.00;;;;;;4114736;28;20046;-60
2023/07/03 09:14:46;;;;;;;13.57;5.43;;;21.20;90.20;;;;;;4112245;28;20114;-58
2023/07/03 09:16:48;;;;;;;9.95;4.82;;;21.20;90.20;;;;;;4115536;28;20051;-54
2023/07/03 09:18:57;;;;;;;10.73;4.63;;;21.30;90.10;;;;;;4114812;28;20433;-54
2023/07/03 09:21:01;;;;;;;9.77;4.43;;;21.40;90.00;;;;;;4115159;28;20405;-50
2023/07/03 09:23:11;;;;;;;7.20;4.07;;;21.70;88.50;;;;;;4112498;28;20050;-51
2023/07/03 09:25:19;;;;;;;7.80;4.47;;;21.80;88.10;;;;;;4115295;28;20046;-52
2023/07/03 09:27:24;;;;;;;11.20;4.25;;;21.90;88.90;;;;;;4114775;28;20074;-53
2023/07/03 09:29:29;;;;;;;9.77;4.60;;;22.20;88.40;;;;;;4114881;28;20053;-51
2023/07/03 09:31:31;;;;;;;12.05;4.78;;;22.50;87.80;;;;;;4097855;28;20047;-50
2023/07/03 09:33:35;;;;;;;7.45;3.55;;;22.60;86.70;;;;;;4113994;28;20051;-50
2023/07/03 09:35:40;;;;;;;11.20;3.88;;;22.70;85.50;;;;;;4114968;28;20461;-50
2023/07/03 09:37:46;;;;;;;7.05;3.88;;;22.80;86.10;;;;;;4114870;28;20416;-50
2023/07/03 09:39:51;;;;;;;8.50;4.30;;;22.80;85.30;;;;;;4115000;28;20125;-50
2023/07/03 09:42:05;;;;;;;7.28;4.03;;;22.90;85.70;;;;;;4115053;28;20098;-51
2023/07/03 09:44:10;;;;;;;12.95;4.32;;;23.10;84.30;;;;;;4113927;28;20054;-53
2023/07/03 09:46:14;;;;;;;9.70;4.55;;;23.00;85.00;;;;;;4104891;28;20054;-52
2023/07/03 09:48:24;;;;;;;9.75;4.30;;;23.00;84.30;;;;;;4114818;28;20130;-52
2023/07/03 09:50:28;;;;;;;7.80;3.95;;;23.00;84.50;;;;;;4118282;28;20055;-52
2023/07/03 09:52:30;;;;;;;9.15;4.00;;;23.20;84.60;;;;;;4113882;28;20054;-51
2023/07/03 09:54:42;;;;;;;8.30;4.18;;;23.30;84.50;;;;;;4114642;28;20043;-52
2023/07/03 09:56:46;;;;;;;9.10;4.50;;;23.30;83.50;;;;;;4113526;28;20130;-53
2023/07/03 09:58:50;;;;;;;7.55;4.10;;;23.30;84.50;;;;;;4098943;28;20075;-52
2023/07/03 10:00:55;;;;;;;8.48;4.45;;;23.20;84.60;;;;;;4113435;28;20137;-52
2023/07/03 10:02:58;;;;;;;9.38;4.60;;;23.10;83.80;;;;;;4112424;28;20046;-52
2023/07/03 10:05:03;;;;;;;;;;;22.80;84.50;;;;;;4106159;28;20122;-53
2023/07/03 10:07:12;;;;;;;11.68;5.32;;;22.70;85.20;;;;;;4112968;28;19922;-53
2023/07/03 10:09:18;;;;;;;12.15;4.70;;;22.90;86.50;;;;;;4099264;28;20039;-53
2023/07/03 10:11:31;;;;;;;8.13;3.88;;;23.10;85.80;;;;;;4114283;28;20511;-54
2023/07/03 10:13:42;;;;;;;7.03;3.28;;;23.10;83.50;;;;;;4112437;28;20553;-53
2023/07/03 10:15:44;;;;;;;9.45;3.80;;;23.00;83.40;;;;;;4113172;28;20047;-52
2023/07/03 10:17:52;;;;;;;6.43;3.38;;;23.00;81.90;;;;;;4108659;28;20050;-55
2023/07/03 10:20:00;;;;;;;6.03;3.65;;;22.90;83.10;;;;;;4114315;28;20054;-52
2023/07/03 10:22:04;;;;;;;9.32;3.95;;;23.10;82.50;;;;;;4097262;29;20573;-50
2023/07/03 10:24:08;;;;;;;11.77;4.50;;;23.00;83.50;;;;;;4113979;28;20137;-51
2023/07/03 10:26:13;;;;;;;8.60;4.40;;;22.90;82.90;;;;;;4114662;28;20046;-51
2023/07/03 10:28:21;;;;;;;8.57;3.55;;;22.90;83.40;;;;;;4114516;28;20051;-50
2023/07/03 10:30:24;;;;;;;8.73;4.18;;;22.90;83.20;;;;;;4114451;28;20458;-50
2023/07/03 10:32:31;;;;;;;8.00;3.90;;;23.00;83.30;;;;;;4114443;28;20503;-52
2023/07/03 10:34:38;;;;;;;10.90;3.97;;;23.30;83.20;;;;;;4114567;28;20067;-55
2023/07/03 10:36:44;;;;;;;7.28;3.60;;;23.30;82.90;;;;;;4114101;28;20075;-53
2023/07/03 10:38:55;;;;;;;15.05;4.03;;;23.30;82.50;;;;;;4114544;28;20049;-53